This is the latest recevied weather packets stored in our database for station/object K4PAR-1. If no packets are shown the sender has not sent any weather packets the latest 10 day(s).
| Time | Temp. | Humidity | Pressure | Rain* | Wind** | Luminosity | Snow |
|---|---|---|---|---|---|---|---|
| 1788456528 | 35.56° C | - | - | 0 mm | 0 m/s | - | - |
| 1788456285 | 35.56° C | - | - | 0 mm | 0 m/s | - | - |
| 1788456043 | 35.56° C | - | - | 0 mm | 0.89 m/s, 304° | - | - |
| 1788455831 | 33.33° C | - | - | 0 mm | 2.24 m/s, 359° | - | - |
| 1788455800 | 33.33° C | - | - | 0 mm | 2.24 m/s, 359° | - | - |
| 1788455315 | 34.44° C | - | - | 0 mm | 1.34 m/s, 235° | - | - |
| 1788454829 | 34.44° C | - | - | 0 mm | 0 m/s | - | - |
| 1788454587 | 33.33° C | - | - | 0 mm | 1.79 m/s, 271° | - | - |
| 1788453945 | 33.33° C | - | - | 0 mm | 1.79 m/s, 63° | - | - |
| 1788453859 | 33.33° C | - | - | 0 mm | 1.79 m/s, 63° | - | - |
| 1788453591 | 34.44° C | - | - | 0 mm | 0.45 m/s, 270° | - | - |
| 1788453374 | 34.44° C | - | - | 0 mm | 0.45 m/s, 270° | - | - |
| 1788453131 | 34.44° C | - | - | 0 mm | 0 m/s | - | - |
| 1788452973 | 32.78° C | - | - | 0 mm | 1.34 m/s, 273° | - | - |
| 1788452889 | 32.78° C | - | - | 0 mm | 1.34 m/s, 273° | - | - |
| 1788452681 | 32.78° C | - | - | 0 mm | 1.79 m/s, 204° | - | - |
| 1788452646 | 32.78° C | - | - | 0 mm | 1.79 m/s, 204° | - | - |
| 1788452437 | 33.33° C | - | - | 0 mm | 1.34 m/s, 183° | - | - |
| 1788452403 | 33.33° C | - | - | 0 mm | 1.34 m/s, 183° | - | - |
| 1788451944 | 33.33° C | - | - | 0 mm | 0 m/s | - | - |
| 1788451918 | 34.44° C | - | - | 0 mm | 0 m/s | - | - |
| 1788451676 | 33.33° C | - | - | 0 mm | 0 m/s | - | - |
| 1788451470 | 32.78° C | - | - | 0 mm | 0 m/s | - | - |
| 1788451433 | 32.78° C | - | - | 0 mm | 0 m/s | - | - |
| 1788451191 | 33.33° C | - | - | 0 mm | 2.24 m/s, 136° | - | - |
* Rain latest hour (hover to see other rain measurements)
** Current wind speed in m/s (hover to see current wind gust speed)